Search for airport 
image banner adimage banner adimage banner ad
image banner ad

KAGC - Allegheny County

Located in Pittsburgh, United States

ICAO - AGC, IATA - AGC

Data provided by Airmate  

General information

Coordinates: N40°21'16" W79°55'45"
Elevation is 1252 feet MSL.
Magnetic variation is -09° East
View others Airports in Pennsylvania

Operational data

Special qualification required
Current time UTC:
Current local time:
Weather
METAR: KAGC 182353Z 00000KT 10SM CLR 24/04 A3027 RMK AO2 SLP250 T02440044 10267 20244 56004
TAF: KAGC 182320Z 1900/1924 16002KT P6SM SCT250 FM191800 18005KT P6SM SCT250
View NOTAMs / SUP AIP / TFR affecting this airport [VIEW]
Communications frequencies: [VIEW]

Runways:

RWY identifierQFULength (ft)Width (ft)SurfaceLDA (ft)
1090°6501150CONC
28270°6501150CONC
13120°3825100CONC
31300°3825100CONC

Airport contact information

Address: Pittsburgh United States

Other aviation service providers

Flight schools

Pittsburgh Flight Training Center

Pittsburgh Flight Training Center
freedom@pghflight.com+1(412)466-1111

Satellite view of KAGC